Terminal Aerodrome Forecast
Issued by NWS Corpus Christi, TX

Home | Current Version | Previous Version | Text Only | Print | Product List | Glossary On
Versions: 1 2 3 4 5 6 7 8 9 10 11 12 13 14 15 16 17 18
833
FTUS44 KCRP 301514 AAB
TAFVCT
TAF AMD
KVCT 301514Z 3015/3112 05006KT P6SM VCTS SCT025CB BKN035
      TEMPO 3015/3016 VRB15G25KT 2SM TSRA BR BKN022CB
     FM301700 14012KT P6SM SCT040 BKN250
     FM310100 14006KT P6SM FEW015 BKN100
     FM310700 10004KT 5SM BR FEW010 BKN250=

USA.gov is the U.S. government's official web portal to all federal, state and local government web resources and services.